createdAt,value
2018-04-19T00:00:40.233Z,35.87
2018-04-19T00:03:08.584Z,35.57
2018-04-19T00:05:36.916Z,34.60
2018-04-19T00:08:05.268Z,35.00
2018-04-19T00:10:33.605Z,34.10
2018-04-19T00:13:01.960Z,34.87
2018-04-19T00:15:30.293Z,35.77
2018-04-19T00:17:58.649Z,37.10
2018-04-19T00:20:26.976Z,37.47
2018-04-19T00:22:55.328Z,37.50
2018-04-19T00:25:23.660Z,39.37
2018-04-19T00:27:52.015Z,40.30
2018-04-19T00:30:20.349Z,38.80
2018-04-19T00:32:48.737Z,38.73
2018-04-19T00:35:17.072Z,38.10
2018-04-19T00:37:45.402Z,41.00
2018-04-19T00:40:13.760Z,41.60
2018-04-19T00:42:42.098Z,37.80
2018-04-19T00:45:10.457Z,40.43
2018-04-19T00:47:38.786Z,41.63
2018-04-19T00:50:07.131Z,39.50
2018-04-19T00:52:47.242Z,37.27
2018-04-19T00:55:15.588Z,39.33
2018-04-19T00:57:43.917Z,40.73
2018-04-19T01:00:12.268Z,40.57
2018-04-19T01:02:40.604Z,41.20
2018-04-19T01:05:08.952Z,42.80
2018-04-19T01:07:37.295Z,40.10
2018-04-19T01:10:05.648Z,40.83
2018-04-19T01:12:33.976Z,42.90
2018-04-19T01:15:02.337Z,42.70
2018-04-19T01:17:30.674Z,43.37
2018-04-19T01:19:59.024Z,40.50
2018-04-19T01:22:27.357Z,39.90
2018-04-19T01:24:55.708Z,40.47
2018-04-19T01:27:24.045Z,40.00
2018-04-19T01:29:52.401Z,40.83
2018-04-19T01:32:20.737Z,39.30
2018-04-19T01:34:49.090Z,39.63
2018-04-19T01:37:17.420Z,38.40
2018-04-19T01:39:45.772Z,42.50
2018-04-19T01:42:14.105Z,40.17
2018-04-19T01:44:42.454Z,39.13
2018-04-19T01:47:10.799Z,39.57
2018-04-19T01:49:39.150Z,38.57
2018-04-19T01:52:07.480Z,39.17
2018-04-19T01:54:37.604Z,38.30
2018-04-19T01:57:05.942Z,39.90
2018-04-19T01:59:34.297Z,40.00
2018-04-19T02:02:02.633Z,39.53
2018-04-19T02:04:30.984Z,37.80
2018-04-19T02:06:59.317Z,40.60
2018-04-19T02:09:27.673Z,37.90
2018-04-19T02:11:56.009Z,39.60
2018-04-19T02:14:24.365Z,34.47
2018-04-19T02:16:52.693Z,37.57
2018-04-19T02:19:21.045Z,38.63
2018-04-19T02:21:49.376Z,39.67
2018-04-19T02:24:17.730Z,38.70
2018-04-19T02:26:46.059Z,39.80
2018-04-19T02:29:14.413Z,39.00
2018-04-19T02:31:42.740Z,39.87
2018-04-19T02:34:11.096Z,39.17
2018-04-19T02:36:39.426Z,39.67
2018-04-19T02:39:07.781Z,37.50
2018-04-19T02:41:36.112Z,40.80
2018-04-19T02:44:04.471Z,37.97
2018-04-19T02:46:32.801Z,42.07
2018-04-19T02:49:01.182Z,39.23
2018-04-19T02:51:29.492Z,39.80
2018-04-19T02:53:57.829Z,37.07
2018-04-19T02:56:26.182Z,38.23
2018-04-19T02:58:54.517Z,39.00
2018-04-19T03:01:22.868Z,39.23
2018-04-19T03:03:51.205Z,38.00
2018-04-19T03:06:19.561Z,36.70
2018-04-19T03:08:47.897Z,37.27
2018-04-19T03:11:16.252Z,38.00
2018-04-19T03:13:44.585Z,35.90
2018-04-19T03:16:12.945Z,37.07
2018-04-19T03:18:41.280Z,36.70
2018-04-19T03:21:09.636Z,38.10
2018-04-19T03:23:37.968Z,39.03
2018-04-19T03:26:06.337Z,39.80
2018-04-19T03:28:34.677Z,38.17
2018-04-19T03:31:03.062Z,38.17
2018-04-19T03:33:31.396Z,36.40
2018-04-19T03:35:59.752Z,37.40
2018-04-19T03:38:28.088Z,38.73
2018-04-19T03:40:56.441Z,38.10
2018-04-19T03:43:24.774Z,40.47
2018-04-19T03:45:53.128Z,40.50
2018-04-19T03:48:21.465Z,40.97
2018-04-19T03:50:49.816Z,39.70
2018-04-19T03:53:18.147Z,40.27
2018-04-19T03:55:46.508Z,43.37
2018-04-19T03:58:14.828Z,40.07
2018-04-19T04:00:43.180Z,40.27
2018-04-19T04:03:11.508Z,43.57
2018-04-19T04:05:39.860Z,42.67
2018-04-19T04:08:08.200Z,42.80
2018-04-19T04:10:36.557Z,45.60
2018-04-19T04:13:04.892Z,44.80
2018-04-19T04:15:33.250Z,45.57
2018-04-19T04:18:13.229Z,46.37
2018-04-19T04:20:53.490Z,42.80
2018-04-19T04:23:39.317Z,44.37
2018-04-19T04:26:07.669Z,42.80
2018-04-19T04:28:35.997Z,43.27
2018-04-19T04:31:04.390Z,41.47
2018-04-19T04:33:32.689Z,46.63
2018-04-19T04:36:01.053Z,47.50
2018-04-19T04:38:29.401Z,47.75
2018-04-19T04:40:57.760Z,47.30
2018-04-19T04:43:26.097Z,44.67
2018-04-19T04:45:54.453Z,44.03
2018-04-19T04:48:22.791Z,46.53
2018-04-19T04:50:51.149Z,44.80
2018-04-19T04:53:19.480Z,45.53
2018-04-19T04:55:47.841Z,45.37
2018-04-19T04:58:16.178Z,43.77
2018-04-19T05:00:44.529Z,43.17
2018-04-19T05:03:12.861Z,44.00
2018-04-19T05:05:41.249Z,41.90
2018-04-19T05:08:09.556Z,41.63
2018-04-19T05:10:37.912Z,42.60
2018-04-19T05:13:06.248Z,40.30
2018-04-19T05:15:34.612Z,39.10
2018-04-19T05:18:02.941Z,37.63
2018-04-19T05:20:31.301Z,38.63
2018-04-19T05:22:59.636Z,38.90
2018-04-19T05:25:28.006Z,39.50
2018-04-19T05:27:56.340Z,37.90
2018-04-19T05:30:24.664Z,37.80
2018-04-19T05:32:53.019Z,40.37
2018-04-19T05:35:21.353Z,38.57
2018-04-19T05:37:49.704Z,39.37
2018-04-19T05:40:18.037Z,39.17
2018-04-19T05:42:46.524Z,38.30
2018-04-19T05:45:14.989Z,39.17
2018-04-19T05:47:43.446Z,36.17
2018-04-19T05:50:11.805Z,32.30
2018-04-19T05:52:40.164Z,37.03
2018-04-19T05:55:08.490Z,36.90
2018-04-19T05:57:36.846Z,37.77
2018-04-19T06:00:05.172Z,37.30
2018-04-19T06:02:33.529Z,38.20
2018-04-19T06:05:01.860Z,35.17
2018-04-19T06:07:30.217Z,36.90
2018-04-19T06:09:58.548Z,35.00
2018-04-19T06:12:26.900Z,35.03
2018-04-19T06:14:55.237Z,36.60
2018-04-19T06:17:23.593Z,34.70
2018-04-19T06:19:51.928Z,35.97
2018-04-19T06:22:20.283Z,35.93
2018-04-19T06:24:48.617Z,35.83
2018-04-19T06:27:16.968Z,37.47
2018-04-19T06:29:45.308Z,35.40
2018-04-19T06:32:13.652Z,35.37
2018-04-19T06:34:41.983Z,38.80
2018-04-19T06:37:10.341Z,36.80
2018-04-19T06:39:38.677Z,34.33
2018-04-19T06:42:07.037Z,37.63
2018-04-19T06:44:35.368Z,35.87
2018-04-19T06:47:03.720Z,35.07
2018-04-19T06:49:32.049Z,34.80
2018-04-19T06:52:00.405Z,34.77
2018-04-19T06:54:28.732Z,32.60
2018-04-19T06:56:57.089Z,34.60
2018-04-19T06:59:25.412Z,35.30
2018-04-19T07:01:53.769Z,33.07
2018-04-19T07:04:22.096Z,34.73
2018-04-19T07:06:50.461Z,35.27
2018-04-19T07:09:18.782Z,33.90
2018-04-19T07:11:47.138Z,34.23
2018-04-19T07:14:15.464Z,33.40
2018-04-19T07:16:43.816Z,35.17
2018-04-19T07:19:12.161Z,34.17
2018-04-19T07:21:40.512Z,32.97
2018-04-19T07:24:08.844Z,32.30
2018-04-19T07:26:37.181Z,32.87
2018-04-19T07:29:05.529Z,33.67
2018-04-19T07:31:33.864Z,32.53
2018-04-19T07:34:02.220Z,31.17
2018-04-19T07:36:30.559Z,31.07
2018-04-19T07:38:58.956Z,33.87
2018-04-19T07:41:27.249Z,33.90
2018-04-19T07:43:55.610Z,35.70
2018-04-19T07:46:23.941Z,34.37
2018-04-19T07:48:52.292Z,34.67
2018-04-19T07:51:20.624Z,33.40
2018-04-19T07:53:48.972Z,36.27
2018-04-19T07:56:17.337Z,33.10
2018-04-19T07:58:45.665Z,35.67
2018-04-19T08:01:14.024Z,34.73
2018-04-19T08:03:42.374Z,33.03
2018-04-19T08:06:10.708Z,32.57
2018-04-19T08:08:39.064Z,34.03
2018-04-19T08:11:07.418Z,30.83
2018-04-19T08:13:35.749Z,34.30
2018-04-19T08:16:04.100Z,32.47
2018-04-19T08:18:32.436Z,30.50
2018-04-19T08:21:00.793Z,31.03
2018-04-19T08:23:29.113Z,27.50
2018-04-19T08:25:57.472Z,30.13
2018-04-19T08:28:25.805Z,18.77
2018-04-19T08:30:54.165Z,16.10
2018-04-19T08:33:22.493Z,24.30
2018-04-19T08:35:50.849Z,19.60
2018-04-19T08:38:19.181Z,17.57
2018-04-19T08:40:47.533Z,16.70
2018-04-19T08:43:15.869Z,17.60
2018-04-19T08:45:44.226Z,15.73
2018-04-19T08:48:12.562Z,17.37
2018-04-19T08:50:40.904Z,17.27
2018-04-19T08:53:09.251Z,18.90
2018-04-19T08:55:37.604Z,19.10
2018-04-19T08:58:05.932Z,17.20
2018-04-19T09:00:34.285Z,17.87
2018-04-19T09:03:02.631Z,17.17
2018-04-19T09:05:30.960Z,17.03
2018-04-19T09:07:59.334Z,16.23
2018-04-19T09:10:27.648Z,17.50
2018-04-19T09:12:56.000Z,15.40
2018-04-19T09:15:24.329Z,13.10
2018-04-19T09:17:52.682Z,13.00
2018-04-19T09:20:21.014Z,12.40
2018-04-19T09:22:49.390Z,11.93
2018-04-19T09:25:17.698Z,11.47
2018-04-19T09:27:46.044Z,12.30
2018-04-19T09:30:14.382Z,11.10
2018-04-19T09:32:42.728Z,11.33
2018-04-19T09:35:11.056Z,10.97
2018-04-19T09:37:39.408Z,12.77
2018-04-19T09:40:07.741Z,11.43
2018-04-19T09:42:36.097Z,11.80
2018-04-19T09:45:04.440Z,10.57
2018-04-19T09:47:32.789Z,11.57
2018-04-19T09:50:01.134Z,11.32
2018-04-19T09:52:29.493Z,11.53
2018-04-19T09:54:57.825Z,10.90
2018-04-19T09:57:26.925Z,11.10
2018-04-19T09:59:55.317Z,10.95
2018-04-19T10:02:28.672Z,10.90
2018-04-19T10:05:02.877Z,11.40
2018-04-19T10:07:31.241Z,9.60
2018-04-19T10:09:59.580Z,8.97
2018-04-19T10:12:27.942Z,9.60
2018-04-19T10:14:56.301Z,10.40
2018-04-19T10:17:24.687Z,8.38
2018-04-19T10:19:53.147Z,7.40
2018-04-19T10:22:21.683Z,7.07
2018-04-19T10:24:50.857Z,9.80
2018-04-19T10:27:19.467Z,8.03
2018-04-19T10:29:47.876Z,8.70
2018-04-19T10:32:16.233Z,8.60
2018-04-19T10:34:44.568Z,7.20
2018-04-19T10:37:12.976Z,8.17
2018-04-19T10:39:41.313Z,9.68
2018-04-19T10:42:09.660Z,7.07
2018-04-19T10:44:38.273Z,8.37
2018-04-19T10:47:06.677Z,16.03
2018-04-19T10:49:34.961Z,17.70
2018-04-19T10:52:03.350Z,20.27
2018-04-19T10:54:31.688Z,20.17
2018-04-19T10:57:00.049Z,17.77
2018-04-19T10:59:28.393Z,19.52
2018-04-19T11:01:56.757Z,19.50
2018-04-19T11:04:25.084Z,19.80
2018-04-19T11:06:53.549Z,17.83
2018-04-19T11:09:21.893Z,19.17
2018-04-19T11:11:50.253Z,19.93
2018-04-19T11:14:18.649Z,18.92
2018-04-19T11:16:46.981Z,21.37
2018-04-19T11:19:15.341Z,20.40
2018-04-19T11:21:43.679Z,21.10
2018-04-19T11:24:12.752Z,19.17
2018-04-19T11:26:41.087Z,19.90
2018-04-19T11:29:09.452Z,21.93
2018-04-19T11:31:37.793Z,20.03
2018-04-19T11:34:06.148Z,18.73
2018-04-19T11:36:34.483Z,18.33
2018-04-19T11:39:02.840Z,19.33
2018-04-19T11:41:31.177Z,19.13
2018-04-19T11:43:59.549Z,19.50
2018-04-19T11:46:27.890Z,17.83
2018-04-19T11:48:56.245Z,16.43
2018-04-19T11:51:24.576Z,18.03
2018-04-19T11:53:52.945Z,20.92
2018-04-19T11:56:21.284Z,18.83
2018-04-19T11:58:49.640Z,24.07
2018-04-19T12:01:17.976Z,22.23
2018-04-19T12:03:47.087Z,23.02
2018-04-19T12:06:15.429Z,20.70
2018-04-19T12:08:43.793Z,21.63
2018-04-19T12:11:12.121Z,20.95
2018-04-19T12:13:40.521Z,24.40
2018-04-19T12:16:08.841Z,18.98
2018-04-19T12:18:37.205Z,21.87
2018-04-19T12:21:05.546Z,21.37
2018-04-19T12:23:33.948Z,22.63
2018-04-19T12:26:02.277Z,20.35
2018-04-19T12:28:30.637Z,20.90
2018-04-19T12:30:58.976Z,18.37
2018-04-19T12:33:27.338Z,20.23
2018-04-19T12:35:55.677Z,18.90
2018-04-19T12:38:24.032Z,15.63
2018-04-19T12:40:52.376Z,9.40
2018-04-19T12:43:21.465Z,9.57
2018-04-19T12:45:49.788Z,8.80
2018-04-19T12:48:18.157Z,9.50
2018-04-19T12:50:46.492Z,8.53
2018-04-19T12:53:14.853Z,9.80
2018-04-19T12:55:43.179Z,9.20
2018-04-19T12:58:11.528Z,8.00
2018-04-19T13:00:39.869Z,14.23
2018-04-19T13:03:09.100Z,16.73
2018-04-19T13:05:37.441Z,18.47
2018-04-19T13:08:05.805Z,18.70
2018-04-19T13:10:34.985Z,14.37
2018-04-19T13:13:03.348Z,14.77
2018-04-19T13:15:31.691Z,17.15
2018-04-19T13:18:00.020Z,17.10
2018-04-19T13:20:28.380Z,18.55
2018-04-19T13:22:56.725Z,18.50
2018-04-19T13:25:25.085Z,23.80
2018-04-19T13:27:53.433Z,14.37
2018-04-19T13:30:21.791Z,13.50
2018-04-19T13:32:50.128Z,13.57
2018-04-19T13:35:18.484Z,12.60
2018-04-19T13:37:46.825Z,13.00
2018-04-19T13:40:15.190Z,15.27
2018-04-19T13:42:43.521Z,16.20
2018-04-19T13:45:11.873Z,16.57
2018-04-19T13:47:40.204Z,15.13
2018-04-19T13:50:08.564Z,17.27
2018-04-19T13:52:36.900Z,16.95
2018-04-19T13:55:05.264Z,16.80
2018-04-19T13:57:33.605Z,16.13
2018-04-19T14:00:01.967Z,16.60
2018-04-19T14:02:31.098Z,15.25
2018-04-19T14:04:59.452Z,13.23
2018-04-19T14:07:27.789Z,14.37
2018-04-19T14:09:56.145Z,16.03
2018-04-19T14:12:24.484Z,12.52
2018-04-19T14:14:52.844Z,13.88
2018-04-19T14:17:21.192Z,15.50
2018-04-19T14:19:49.549Z,15.23
2018-04-19T14:22:17.880Z,14.17
2018-04-19T14:24:46.240Z,14.03
2018-04-19T14:27:14.572Z,12.73
2018-04-19T14:29:42.934Z,14.73
2018-04-19T14:32:11.276Z,13.83
2018-04-19T14:34:39.633Z,12.87
2018-04-19T14:37:07.972Z,11.85
2018-04-19T14:39:36.337Z,12.40
2018-04-19T14:42:04.675Z,11.63
2018-04-19T14:44:33.033Z,12.30
2018-04-19T14:47:01.369Z,11.03
2018-04-19T14:49:29.726Z,9.63
2018-04-19T14:51:58.057Z,12.13
2018-04-19T14:54:26.410Z,11.20
2018-04-19T14:56:54.748Z,10.60
2018-04-19T14:59:23.274Z,9.55
2018-04-19T15:01:51.609Z,11.37
2018-04-19T15:04:19.971Z,10.77
2018-04-19T15:06:48.304Z,10.85
2018-04-19T15:09:16.706Z,10.27
2018-04-19T15:11:45.001Z,12.30
2018-04-19T15:16:47.522Z,11.90
2018-04-19T15:19:15.876Z,13.23
2018-04-19T15:21:44.446Z,14.10
2018-04-19T15:24:12.776Z,14.27
2018-04-19T15:26:41.136Z,13.30
2018-04-19T15:29:09.476Z,13.53
2018-04-19T15:31:37.845Z,15.77
2018-04-19T15:34:06.173Z,13.83
2018-04-19T15:36:35.465Z,13.60
2018-04-19T15:39:03.816Z,13.20
2018-04-19T15:41:32.164Z,14.15
2018-04-19T15:44:00.504Z,16.03
2018-04-19T15:46:28.865Z,15.37
2018-04-19T15:48:57.201Z,16.00
2018-04-19T15:51:25.564Z,17.30
2018-04-19T15:53:53.896Z,17.43
2018-04-19T15:56:22.257Z,19.03
2018-04-19T15:58:50.598Z,18.70
2018-04-19T16:01:18.958Z,21.70
2018-04-19T16:03:47.292Z,20.90
2018-04-19T16:06:15.664Z,22.97
2018-04-19T16:08:43.993Z,24.00
2018-04-19T16:11:12.391Z,24.60
2018-04-19T16:13:40.698Z,20.75
2018-04-19T16:16:09.057Z,22.33
2018-04-19T16:18:37.392Z,23.30
2018-04-19T16:21:06.542Z,23.33
2018-04-19T16:23:34.873Z,25.03
2018-04-19T16:26:03.241Z,22.47
2018-04-19T16:28:31.579Z,22.87
2018-04-19T16:30:59.941Z,22.57
2018-04-19T16:33:28.289Z,21.53
2018-04-19T16:35:56.652Z,20.07
2018-04-19T16:38:24.988Z,23.47
2018-04-19T16:40:54.209Z,23.65
2018-04-19T16:43:22.545Z,22.00
2018-04-19T16:45:50.909Z,23.30
2018-04-19T16:48:19.245Z,24.20
2018-04-19T16:50:47.605Z,19.83
2018-04-19T16:53:15.948Z,20.43
2018-04-19T16:55:44.362Z,20.40
2018-04-19T16:58:12.649Z,20.50
2018-04-19T17:00:41.008Z,18.73
2018-04-19T17:03:09.345Z,20.00
2018-04-19T17:05:37.714Z,21.30
2018-04-19T17:08:06.074Z,19.80
2018-04-19T17:10:34.451Z,19.83
2018-04-19T17:13:02.785Z,22.37
2018-04-19T17:15:31.172Z,23.47
2018-04-19T17:17:59.638Z,21.87
2018-04-19T17:20:28.637Z,21.43
2018-04-19T17:22:57.188Z,23.73
2018-04-19T17:25:25.536Z,21.67
2018-04-19T17:27:53.904Z,20.67
2018-04-19T17:30:22.240Z,23.20
2018-04-19T17:32:50.596Z,21.92
2018-04-19T17:35:18.941Z,23.30
2018-04-19T17:37:47.306Z,24.57
2018-04-19T17:40:15.635Z,20.77
2018-04-19T17:42:44.004Z,19.80
2018-04-19T17:45:12.346Z,20.00
2018-04-19T17:47:40.700Z,19.97
2018-04-19T17:50:09.040Z,20.25
2018-04-19T17:52:37.413Z,17.58
2018-04-19T17:55:05.748Z,19.48
2018-04-19T17:57:34.106Z,20.73
2018-04-19T18:00:03.018Z,19.95
2018-04-19T18:02:31.376Z,18.13
2018-04-19T18:04:59.708Z,16.83
2018-04-19T18:07:28.072Z,20.87
2018-04-19T18:09:56.416Z,19.47
2018-04-19T18:12:24.776Z,16.87
2018-04-19T18:14:53.120Z,18.05
2018-04-19T18:17:21.489Z,19.37
2018-04-19T18:19:49.947Z,20.27
2018-04-19T18:22:18.300Z,18.30
2018-04-19T18:24:46.666Z,19.10
2018-04-19T18:27:15.024Z,18.47
2018-04-19T18:29:43.373Z,19.30
2018-04-19T18:32:11.734Z,18.92
2018-04-19T18:34:40.069Z,18.60
2018-04-19T18:37:08.437Z,18.13
2018-04-19T18:39:36.794Z,20.07
2018-04-19T18:42:05.155Z,17.37
2018-04-19T18:44:33.485Z,17.10
2018-04-19T18:47:01.849Z,19.40
2018-04-19T18:49:30.180Z,18.90
2018-04-19T18:51:58.545Z,19.03
2018-04-19T18:54:26.887Z,19.60
2018-04-19T18:58:46.932Z,18.47
2018-04-19T19:01:15.268Z,20.57
2018-04-19T19:03:43.625Z,20.83
2018-04-19T19:06:11.964Z,20.08
2018-04-19T19:08:40.328Z,22.00
2018-04-19T19:11:08.671Z,23.00
2018-04-19T19:13:37.032Z,22.33
2018-04-19T19:16:08.088Z,23.90
2018-04-19T19:18:48.220Z,22.52
2018-04-19T19:21:16.565Z,23.12
2018-04-19T19:25:21.225Z,23.20
2018-04-19T19:29:57.405Z,23.47
2018-04-19T19:32:25.801Z,22.67
2018-04-19T19:34:54.133Z,24.80
2018-04-19T19:37:22.533Z,26.60
2018-04-19T19:39:50.864Z,24.25
2018-04-19T19:42:19.223Z,24.47
2018-04-19T19:44:47.568Z,26.20
2018-04-19T19:47:15.924Z,26.10
2018-04-19T19:49:44.260Z,26.63
2018-04-19T19:52:12.620Z,28.30
2018-04-19T19:54:40.958Z,27.53
2018-04-19T19:57:09.323Z,28.30
2018-04-19T19:59:37.657Z,28.00
2018-04-19T20:02:06.023Z,28.23
2018-04-19T20:04:34.360Z,31.17
2018-04-19T20:07:02.728Z,30.23
2018-04-19T20:09:32.013Z,30.03
2018-04-19T20:12:00.351Z,28.17
2018-04-19T20:14:28.729Z,28.63
2018-04-19T20:16:57.700Z,28.70
2018-04-19T20:19:26.103Z,30.33
2018-04-19T20:21:54.432Z,28.13
2018-04-19T20:24:22.769Z,27.80
2018-04-19T20:26:51.129Z,28.62
2018-04-19T20:29:19.635Z,28.37
2018-04-19T20:31:47.988Z,29.27
2018-04-19T20:34:16.338Z,28.83
2018-04-19T20:36:44.705Z,28.83
2018-04-19T20:39:13.043Z,30.43
2018-04-19T20:41:41.408Z,31.43
2018-04-19T20:44:09.748Z,28.75
2018-04-19T20:46:38.111Z,29.17
2018-04-19T20:49:06.481Z,29.60
2018-04-19T20:51:34.844Z,29.20
2018-04-19T20:54:03.184Z,29.67
2018-04-19T20:56:31.553Z,28.93
2018-04-19T20:58:59.957Z,27.60
2018-04-19T21:01:28.251Z,27.47
2018-04-19T21:03:56.617Z,28.13
2018-04-19T21:06:24.958Z,29.00
2018-04-19T21:08:54.148Z,27.10
2018-04-19T21:11:22.487Z,28.93
2018-04-19T21:13:50.878Z,30.23
2018-04-19T21:16:19.217Z,30.33
2018-04-19T21:18:47.590Z,29.23
2018-04-19T21:21:15.932Z,28.07
2018-04-19T21:23:44.302Z,33.13
2018-04-19T21:26:12.644Z,29.37
2018-04-19T21:28:41.005Z,30.20
2018-04-19T21:31:09.603Z,28.67
2018-04-19T21:33:38.329Z,29.30
2018-04-19T21:36:06.700Z,29.27
2018-04-19T21:38:35.060Z,28.25
2018-04-19T21:41:03.397Z,28.83
2018-04-19T21:43:31.759Z,27.62
2018-04-19T21:46:00.101Z,29.35
2018-04-19T21:48:28.661Z,30.27
2018-04-19T21:50:57.000Z,30.10
2018-04-19T21:53:25.368Z,27.83
2018-04-19T21:55:53.705Z,26.17
2018-04-19T21:58:22.068Z,27.75
2018-04-19T22:00:50.405Z,25.67
2018-04-19T22:03:18.745Z,27.20
2018-04-19T22:05:47.105Z,25.97
2018-04-19T22:08:15.445Z,26.67
2018-04-19T22:10:43.810Z,24.90
2018-04-19T22:13:12.149Z,25.73
2018-04-19T22:15:40.519Z,26.75
2018-04-19T22:18:08.856Z,26.37
2018-04-19T22:20:37.207Z,26.93
2018-04-19T22:23:05.545Z,25.03
2018-04-19T22:25:33.899Z,26.00
2018-04-19T22:28:03.141Z,26.73
2018-04-19T22:30:31.501Z,25.40
2018-04-19T22:32:59.841Z,24.87
2018-04-19T22:35:28.216Z,22.55
2018-04-19T22:37:56.536Z,23.75
2018-04-19T22:40:25.808Z,21.90
2018-04-19T22:42:54.152Z,21.40
2018-04-19T22:45:22.518Z,21.27
2018-04-19T22:47:50.852Z,22.17
2018-04-19T22:50:19.214Z,20.87
2018-04-19T22:52:47.562Z,21.50
2018-04-19T22:55:15.942Z,20.63
2018-04-19T22:57:44.280Z,19.57
2018-04-19T23:00:12.641Z,21.20
2018-04-19T23:02:40.700Z,19.90
2018-04-19T23:05:09.149Z,21.15
2018-04-19T23:07:37.488Z,20.98
2018-04-19T23:10:05.825Z,21.27
2018-04-19T23:12:34.188Z,22.47
2018-04-19T23:15:02.525Z,22.33
2018-04-19T23:17:30.887Z,22.37
2018-04-19T23:19:59.224Z,21.77
2018-04-19T23:22:37.349Z,20.20
2018-04-19T23:25:05.760Z,21.02
2018-04-19T23:27:34.060Z,19.83
2018-04-19T23:30:02.405Z,19.40
2018-04-19T23:32:30.761Z,19.73
2018-04-19T23:34:59.097Z,21.98
2018-04-19T23:37:27.464Z,22.00
2018-04-19T23:39:55.807Z,19.67
2018-04-19T23:42:24.161Z,19.70
2018-04-19T23:44:52.505Z,19.27
2018-04-19T23:47:20.860Z,20.30
2018-04-19T23:49:49.197Z,20.27
2018-04-19T23:52:17.553Z,19.53
2018-04-19T23:54:45.889Z,19.93
2018-04-19T23:57:14.244Z,19.63
2018-04-19T23:59:42.589Z,20.37
